73°F Temp
61°F Dewpoint
% Humidity
Temperature
12 MPH
19 KM/H
10 KTS
90°
Due East

Wind Speed
Mostly Scattered
Clouds
Pressure 1016.22 (hPa) - 30.01 (in)
Visibility 10.0 (mi) - 16.1 (km)

Current Conditions
KPBI
Location 9(mi)
Metar :KPBI 232353Z 09010KT 10SM SCT034 BKN043 BKN080 23/16 A3001 RMK AO2 SLP161 60003 T02280161 10250 20211 53005
Thu 23rd January 19:53 pm

Airport
  Metar Aviation API Data Provided by https://www.checkwx.com/ PHP scripts by weather34.com ©2020